This demonstration page uses our WeatherBlox Daily Observations layout. Learn more.

38.88101, -77.10428

Hourly Observations for October 25, 2016

Temp ( °F °C ) Dew Point ( °F °C ) Humidity (%) Winds ( mph kmh ) Pressure ( in mb ) Visibility ( mi km ) Precip ( " mm )
12:52 am 00:52 Mostly Clear 51 10.6 34 1.1 52 52 NNW 12 19 30.27 1025 10 16.09344 0 0
1:52 am 01:52 Clear 50 10 35 1.7 57 57 NNW 9 15 30.27 1025 10 16.09344 0 0
2:52 am 02:52 Clear 50 10 34 1.1 54 54 NNW 12 19 30.3 1026 10 16.09344 0 0
3:52 am 03:52 Clear 50 10 33 0.6 52 52 NW 12 19 30.3 1026 10 16.09344 0 0
4:52 am 04:52 Clear 49 9.4 33 0.6 55 55 NW 9 15 30.27 1025 10 16.09344 0 0
5:52 am 05:52 Clear 49 9.4 33 0.6 55 55 NW 7 11 30.3 1026 10 16.09344 0 0
6:52 am 06:52 Clear 48 8.9 34 1.1 58 58 WNW 7 11 30.3 1026 10 16.09344 0 0
7:52 am 07:52 Mostly Sunny 48 8.9 34 1.1 58 58 WNW 6 9 30.33 1027 10 16.09344 0 0
8:52 am 08:52 Sunny 51 10.6 35 1.7 54 54 W 7 11 30.33 1027 10 16.09344 0 0
9:52 am 09:52 Sunny 55 12.8 35 1.7 47 47 WNW 10 17 30.33 1027 10 16.09344 0 0
10:52 am 10:52 Mostly Sunny 58 14.4 35 1.7 42 42 NW 21 33 30.33 1027 10 16.09344 0 0
11:52 am 11:52 Mostly Sunny 61 16.1 35 1.7 38 38 NW 16 26 30.33 1027 10 16.09344 0 0
12:52 pm 12:52 Mostly Sunny 62 16.7 35 1.7 37 37 NNW 20 31 30.3 1026 10 16.09344 0 0
1:52 pm 13:52 Mostly Sunny 62 16.7 34 1.1 35 35 NW 14 22 30.27 1025 10 16.09344 0 0
2:52 pm 14:52 Mostly Sunny 63 17.2 34 1.1 34 34 WNW 15 24 30.27 1025 10 16.09344 0 0
3:52 pm 15:52 Mostly Sunny 64 17.8 34 1.1 33 33 NW 16 26 30.27 1025 10 16.09344 0 0
4:52 pm 16:52 Mostly Sunny 62 16.7 33 0.6 34 34 NNW 15 24 30.27 1025 10 16.09344 0 0
5:52 pm 17:52 Partly Cloudy 60 15.6 34 1.1 38 38 NNW 13 20 30.3 1026 10 16.09344 0 0
6:52 pm 18:52 Partly Cloudy 57 13.9 35 1.7 44 44 N 16 26 30.33 1027 10 16.09344 0 0
7:52 pm 19:52 Mostly Clear 55 12.8 33 0.6 44 44 N 14 22 30.36 1028 10 16.09344 0 0
8:52 pm 20:52 Clear 53 11.7 32 0 45 45 N 10 17 30.39 1029 10 16.09344 0 0
9:52 pm 21:52 Clear 52 11.1 33 0.6 49 49 NNW 8 13 30.39 1029 10 16.09344 0 0
10:52 pm 22:52 Mostly Clear 50 10 33 0.6 52 52 NNW 7 11 30.42 1030 10 16.09344 0 0
11:52 pm 23:52 Mostly Clear 51 10.6 35 1.7 54 54 NNE 3 6 30.42 1030 10 16.09344 0 0

Powered by AerisWeather